Time;durP1;ratioP1;P1;durP2;ratioP2;P2;SDS_P1;SDS_P2;PMS_P1;PMS_P2;Temp;Humidity;BMP_temperature;BMP_pressure;BME280_temperature;BME280_humidity;BME280_pressure;Samples;Min_cycle;Max_cycle;Signal;HPM_P1;HPM_P2
2021/11/07 00:01:04;;;;;;;;;;;;;;;-144.99;100.00;52554.09;5011650;28;19982;-66
2021/11/07 00:03:35;;;;;;;;;;;;;;;-144.99;100.00;52550.00;5010875;28;20006;-66
2021/11/07 00:06:07;;;;;;;;;;;;;;;-144.99;100.00;52523.50;5010761;28;20409;-65
2021/11/07 00:08:43;;;;;;;;;;;;;;;-144.99;100.00;52523.50;5010822;28;20008;-66
2021/11/07 00:11:19;;;;;;;;;;;;;;;-144.99;100.00;52539.81;5011104;28;19990;-67
2021/11/07 00:13:46;;;;;;;;;;;;;;;-144.99;100.00;52562.25;5010219;28;20041;-66
2021/11/07 00:16:20;;;;;;;;;;;;;;;-144.99;100.00;52586.69;5019292;28;19982;-66
2021/11/07 00:18:56;;;;;;;;;;;;;;;-144.99;100.00;52545.94;5010785;28;19989;-67
2021/11/07 00:21:25;;;;;;;;;;;;;;;-144.99;100.00;52554.09;5011074;28;19977;-67
2021/11/07 00:23:59;;;;;;;;;;;;;;;-144.99;100.00;52566.31;5010353;28;20017;-66
2021/11/07 00:26:28;;;;;;;;;;;;;;;-144.99;100.00;52523.50;5010961;28;20409;-66
2021/11/07 00:28:57;;;;;;;;;;;;;;;-144.99;100.00;52539.81;5011194;28;20261;-66
2021/11/07 00:31:31;;;;;;;;;;;;;;;-144.99;100.00;52562.25;5010877;28;20395;-66
2021/11/07 00:36:43;;;;;;;;;;;;;;;-144.99;100.00;52574.47;5017220;28;19984;-65
2021/11/07 00:39:15;;;;;;;;;;;;;;;-144.99;100.00;52566.31;5010805;28;20017;-66
2021/11/07 00:41:48;;;;;;;;;;;;;;;-144.99;100.00;52566.31;5010466;28;20397;-66
2021/11/07 00:44:16;;;;;;;;;;;;;;;-144.99;100.00;52564.28;5017251;28;20004;-66
2021/11/07 00:46:47;;;;;;;;;;;;;;;-144.99;100.00;52550.00;5023055;28;20064;-66
2021/11/07 00:49:18;;;;;;;;;;;;;;;-144.99;100.00;52562.25;5010659;28;20073;-66
2021/11/07 00:51:56;;;;;;;;;;;;;;;-144.99;100.00;52545.94;5018522;28;19978;-65
2021/11/07 00:54:27;;;;;;;;;;;;;;;-144.99;100.00;52545.94;5011240;28;20447;-65
2021/11/07 00:56:55;;;;;;;;;;;;;;;-144.99;100.00;52505.16;5010728;28;20044;-66
2021/11/07 00:59:34;;;;;;;;;;;;;;;-144.99;100.00;52554.09;5010670;28;19982;-65
2021/11/07 01:02:07;;;;;;;;;;;;;;;-144.99;100.00;52558.16;5010766;28;19986;-65
2021/11/07 01:04:36;;;;;;;;;;;;;;;-144.99;100.00;52525.56;5009743;28;20362;-65
2021/11/07 01:07:03;;;;;;;;;;;;;;;-144.99;100.00;52550.00;5010496;28;20011;-65
2021/11/07 01:09:29;;;;;;;;;;;;;;;-144.99;100.00;52582.63;5010533;28;19986;-66
2021/11/07 01:11:56;;;;;;;;;;;;;;;-144.99;100.00;52533.69;5010865;28;19982;-66
2021/11/07 01:14:22;;;;;;;;;;;;;;;-144.99;100.00;52545.94;5024526;28;19978;-66
2021/11/07 01:16:49;;;;;;;;;;;;;;;-144.99;100.00;52570.38;5018575;28;19985;-66
2021/11/07 01:19:17;;;;;;;;;;;;;;;-144.99;100.00;52517.41;5010654;28;19989;-65
2021/11/07 01:21:45;;;;;;;;;;;;;;;-144.99;100.00;52574.47;5009903;28;20111;-66
2021/11/07 01:24:15;;;;;;;;;;;;;;;-144.99;100.00;52562.25;5010083;28;20049;-66
2021/11/07 01:26:44;;;;;;;;;;;;;;;-144.99;100.00;52545.94;5010563;28;20334;-66
2021/11/07 01:29:14;;;;;;;;;;;;;;;-144.99;100.00;52558.16;5013735;28;19981;-66
2021/11/07 01:31:40;;;;;;;;;;;;;;;-144.99;100.00;52560.19;5014081;28;19989;-66
2021/11/07 01:34:11;;;;;;;;;;;;;;;-144.99;100.00;52545.94;5015577;28;20033;-66
2021/11/07 01:36:43;;;;;;;;;;;;;;;-144.99;100.00;52541.84;5022944;28;19978;-66
2021/11/07 01:39:15;;;;;;;;;;;;;;;-144.99;100.00;52521.47;5014906;28;20015;-65
2021/11/07 01:41:57;;;;;;;;;;;;;;;-144.99;100.00;52525.56;5015745;28;20035;-66
2021/11/07 01:44:24;;;;;;;;;;;;;;;-144.99;100.00;52558.16;5024405;28;19993;-65
2021/11/07 01:46:53;;;;;;;;;;;;;;;-144.99;100.00;52603.00;5021080;28;20028;-65
2021/11/07 01:49:22;;;;;;;;;;;;;;;-144.99;100.00;52545.94;5017032;28;19986;-67
2021/11/07 01:51:52;;;;;;;;;;;;;;;-144.99;100.00;52554.09;5022808;28;20028;-66
2021/11/07 01:54:24;;;;;;;;;;;;;;;-144.99;100.00;52545.94;5021143;28;19982;-66
2021/11/07 01:56:51;;;;;;;;;;;;;;;-144.99;100.00;52545.94;5014390;28;19989;-66
2021/11/07 01:59:18;;;;;;;;;;;;;;;-144.99;100.00;52513.31;5014690;28;19986;-66
2021/11/07 02:01:44;;;;;;;;;;;;;;;-144.99;100.00;52550.00;5013881;28;19982;-65
2021/11/07 02:04:10;;;;;;;;;;;;;;;-144.99;100.00;52556.13;5013186;28;20001;-67
2021/11/07 02:06:37;;;;;;;;;;;;;;;-144.99;100.00;52578.53;5013283;28;19982;-66
2021/11/07 02:09:05;;;;;;;;;;;;;;;-144.99;100.00;52517.41;5013738;28;19989;-65
2021/11/07 02:11:31;;;;;;;;;;;;;;;-144.99;100.00;52562.25;5013141;28;20008;-66
2021/11/07 02:13:58;;;;;;;;;;;;;;;-144.99;100.00;52578.53;5014979;28;20483;-65
2021/11/07 02:16:25;;;;;;;;;;;;;;;-144.99;100.00;52541.84;5023895;28;19988;-65
2021/11/07 02:18:52;;;;;;;;;;;;;;;-144.99;100.00;52578.53;5012936;28;19982;-66
2021/11/07 02:21:20;;;;;;;;;;;;;;;-144.99;100.00;52513.31;5013050;28;20008;-66
2021/11/07 02:23:46;;;;;;;;;;;;;;;-144.99;100.00;52505.16;5012963;28;20001;-65
2021/11/07 02:26:12;;;;;;;;;;;;;;;-144.99;100.00;52545.94;5013264;28;19985;-66
2021/11/07 02:28:42;;;;;;;;;;;;;;;-144.99;100.00;52558.16;5013133;28;20358;-66
2021/11/07 02:31:09;;;;;;;;;;;;;;;-144.99;100.00;52558.16;5013730;28;20518;-66
2021/11/07 02:33:36;;;;;;;;;;;;;;;-144.99;100.00;52533.69;5012753;28;20009;-66
2021/11/07 02:36:06;;;;;;;;;;;;;;;-144.99;100.00;52550.00;5022817;28;19966;-66
2021/11/07 02:38:34;;;;;;;;;;;;;;;-144.99;100.00;52566.31;5030857;28;19992;-66
2021/11/07 02:41:00;;;;;;;;;;;;;;;-144.99;100.00;52562.25;5015261;28;20493;-67
2021/11/07 02:43:27;;;;;;;;;;;;;;;-144.99;100.00;52533.69;5031772;28;20057;-66
2021/11/07 02:45:53;;;;;;;;;;;;;;;-144.99;100.00;52533.69;5025454;28;19989;-65
2021/11/07 02:48:19;;;;;;;;;;;;;;;-144.99;100.00;52566.31;5019133;28;19986;-65
2021/11/07 02:50:46;;;;;;;;;;;;;;;-144.99;100.00;52503.13;5013076;28;19985;-66
2021/11/07 02:53:13;;;;;;;;;;;;;;;-144.99;100.00;52574.47;5016708;28;20120;-66
2021/11/07 02:55:42;;;;;;;;;;;;;;;-144.99;100.00;52533.69;5014120;28;20035;-66
2021/11/07 02:58:08;;;;;;;;;;;;;;;-144.99;100.00;52558.16;5011740;28;19988;-66
2021/11/07 03:00:35;;;;;;;;;;;;;;;-144.99;100.00;52550.00;5012115;28;19982;-66
2021/11/07 03:03:01;;;;;;;;;;;;;;;-144.99;100.00;52527.59;5012116;28;20066;-66
2021/11/07 03:05:29;;;;;;;;;;;;;;;-144.99;100.00;52545.94;5011977;28;19997;-66
2021/11/07 03:07:55;;;;;;;;;;;;;;;-144.99;100.00;52509.25;5012020;28;20454;-66
2021/11/07 03:10:23;;;;;;;;;;;;;;;-144.99;100.00;52523.50;5011828;28;20005;-66
2021/11/07 03:13:03;;;;;;;;;;;;;;;-144.99;100.00;52562.25;5012574;28;20040;-65
2021/11/07 03:15:30;;;;;;;;;;;;;;;-144.99;100.00;52554.09;5026078;28;19983;-66
2021/11/07 03:17:56;;;;;;;;;;;;;;;-144.99;100.00;52537.78;5016978;28;19978;-66
2021/11/07 03:20:23;;;;;;;;;;;;;;;-144.99;100.00;52525.56;5020121;28;19985;-66
2021/11/07 03:22:50;;;;;;;;;;;;;;;-144.99;100.00;52523.50;5018148;28;20377;-68
2021/11/07 03:25:16;;;;;;;;;;;;;;;-144.99;100.00;52529.63;5025028;28;20020;-67
2021/11/07 03:27:44;;;;;;;;;;;;;;;-144.99;100.00;52533.69;5024543;28;19982;-66
2021/11/07 03:30:22;;;;;;;;;;;;;;;-144.99;100.00;52562.25;5026213;28;19986;-66
2021/11/07 03:32:50;;;;;;;;;;;;;;;-144.99;100.00;52537.78;5026476;28;20009;-66
2021/11/07 03:35:18;;;;;;;;;;;;;;;-144.99;100.00;52511.28;5017633;28;20442;-66
2021/11/07 03:37:55;;;;;;;;;;;;;;;-144.99;100.00;52517.41;5012459;28;19993;-66
2021/11/07 03:40:22;;;;;;;;;;;;;;;-144.99;100.00;52537.78;5012039;28;20406;-66
2021/11/07 03:42:48;;;;;;;;;;;;;;;-144.99;100.00;52513.31;5010508;28;20005;-66
2021/11/07 03:45:16;;;;;;;;;;;;;;;-144.99;100.00;52574.47;5015601;28;19969;-66
2021/11/07 03:47:42;;;;;;;;;;;;;;;-144.99;100.00;52509.25;5020508;28;20402;-66
2021/11/07 03:50:09;;;;;;;;;;;;;;;-144.99;100.00;52556.13;5010989;28;20435;-66
2021/11/07 03:52:35;;;;;;;;;;;;;;;-144.99;100.00;52501.09;5015801;28;20273;-66
2021/11/07 03:55:02;;;;;;;;;;;;;;;-144.99;100.00;52545.94;5004868;28;20365;-66
2021/11/07 03:57:28;;;;;;;;;;;;;;;-144.99;100.00;52521.47;5010877;28;19989;-67
2021/11/07 03:59:55;;;;;;;;;;;;;;;-144.99;100.00;52552.03;5011792;28;19982;-66
2021/11/07 04:02:23;;;;;;;;;;;;;;;-144.99;100.00;52519.44;5011128;28;19997;-66
2021/11/07 04:04:49;;;;;;;;;;;;;;;-144.99;100.00;52525.56;5010529;28;19998;-66
2021/11/07 04:07:16;;;;;;;;;;;;;;;-144.99;100.00;52541.84;5010976;28;20018;-66
2021/11/07 04:09:42;;;;;;;;;;;;;;;-144.99;100.00;52525.56;5011078;28;19982;-67
2021/11/07 04:12:09;;;;;;;;;;;;;;;-144.99;100.00;52564.28;5010792;28;19997;-67
2021/11/07 04:14:36;;;;;;;;;;;;;;;-144.99;100.00;52562.25;5010215;28;19980;-66
2021/11/07 04:17:03;;;;;;;;;;;;;;;-144.99;100.00;52509.25;5007187;28;20019;-66
2021/11/07 04:19:31;;;;;;;;;;;;;;;-144.99;100.00;52545.94;5010897;28;19993;-66
2021/11/07 04:22:02;;;;;;;;;;;;;;;-144.99;100.00;52513.31;5010643;28;19990;-66
2021/11/07 04:24:29;;;;;;;;;;;;;;;-144.99;100.00;52513.31;5018989;22;20112;-65
2021/11/07 04:26:56;;;;;;;;;;;;;;;-144.99;100.00;52517.41;4981090;28;19978;-66
2021/11/07 04:29:22;;;;;;;;;;;;;;;-144.99;100.00;52527.59;4990138;28;20001;-66
2021/11/07 04:31:49;;;;;;;;;;;;;;;-144.99;100.00;52509.25;4989864;28;20061;-65
2021/11/07 04:34:15;;;;;;;;;;;;;;;-144.99;100.00;52521.47;4989219;28;20021;-67
2021/11/07 04:36:43;;;;;;;;;;;;;;;-144.99;100.00;52529.63;4996648;28;19985;-66
2021/11/07 04:39:09;;;;;;;;;;;;;;;-144.99;100.00;52529.63;4990071;28;19982;-66
2021/11/07 04:41:37;;;;;;;;;;;;;;;-144.99;100.00;52554.09;4989528;28;20005;-66
2021/11/07 04:44:03;;;;;;;;;;;;;;;-144.99;100.00;52560.19;4998520;28;20077;-67
2021/11/07 04:46:31;;;;;;;;;;;;;;;-144.99;100.00;52513.31;5004271;28;20089;-65
2021/11/07 04:48:57;;;;;;;;;;;;;;;-144.99;100.00;52541.84;4991228;28;20005;-67
2021/11/07 04:51:24;;;;;;;;;;;;;;;-144.99;100.00;52521.47;4995686;28;19984;-66
2021/11/07 04:53:51;;;;;;;;;;;;;;;-144.99;100.00;52541.84;4997589;28;20084;-66
2021/11/07 04:56:18;;;;;;;;;;;;;;;-144.99;100.00;52501.09;4989143;28;20530;-66
2021/11/07 04:58:45;;;;;;;;;;;;;;;-144.99;100.00;52521.47;4989749;28;20009;-66
2021/11/07 05:01:11;;;;;;;;;;;;;;;-144.99;100.00;52529.63;4989578;28;20097;-66
2021/11/07 05:03:38;;;;;;;;;;;;;;;-144.99;100.00;52554.09;4992330;28;19994;-66
2021/11/07 05:06:05;;;;;;;;;;;;;;;-144.99;100.00;52521.47;4992705;28;19998;-66
2021/11/07 05:08:31;;;;;;;;;;;;;;;-144.99;100.00;52539.81;4993756;28;19993;-65
2021/11/07 05:10:59;;;;;;;;;;;;;;;-144.99;100.00;52533.69;4993083;28;20266;-66
2021/11/07 05:13:25;;;;;;;;;;;;;;;-144.99;100.00;52533.69;4993022;28;19998;-66
2021/11/07 05:15:52;;;;;;;;;;;;;;;-144.99;100.00;52550.00;5000982;28;20006;-66
2021/11/07 05:18:19;;;;;;;;;;;;;;;-144.99;100.00;52541.84;4993345;28;20092;-66
2021/11/07 05:20:45;;;;;;;;;;;;;;;-144.99;100.00;52529.63;4992808;28;20025;-66
2021/11/07 05:23:12;;;;;;;;;;;;;;;-144.99;100.00;52533.69;4992574;28;19993;-66
2021/11/07 05:25:38;;;;;;;;;;;;;;;-144.99;100.00;52517.41;4992625;28;20435;-66
2021/11/07 05:28:06;;;;;;;;;;;;;;;-144.99;100.00;52533.69;4992538;28;19989;-66
2021/11/07 05:30:32;;;;;;;;;;;;;;;-144.99;100.00;52541.84;4993229;28;19982;-66
2021/11/07 05:32:59;;;;;;;;;;;;;;;-144.99;100.00;52517.41;4979623;28;20435;-67
2021/11/07 05:35:26;;;;;;;;;;;;;;;-144.99;100.00;52578.53;4999021;28;19977;-66
2021/11/07 05:37:52;;;;;;;;;;;;;;;-144.99;100.00;52519.44;4992815;28;19982;-66
2021/11/07 05:40:19;;;;;;;;;;;;;;;-144.99;100.00;52545.94;4993087;28;20005;-66
2021/11/07 05:42:46;;;;;;;;;;;;;;;-144.99;100.00;52570.38;4993009;28;20005;-66
2021/11/07 05:45:14;;;;;;;;;;;;;;;-144.99;100.00;52505.16;4997924;28;20132;-66
2021/11/07 05:47:42;;;;;;;;;;;;;;;-144.99;100.00;52545.94;5000998;28;19989;-66
2021/11/07 05:50:09;;;;;;;;;;;;;;;-144.99;100.00;52545.94;4992467;28;20359;-66
2021/11/07 05:52:35;;;;;;;;;;;;;;;-144.99;100.00;52515.34;4996571;28;20081;-66
2021/11/07 05:55:02;;;;;;;;;;;;;;;-144.99;100.00;52554.09;4998608;28;19982;-66
2021/11/07 05:57:28;;;;;;;;;;;;;;;-144.99;100.00;52545.94;4991945;28;19992;-66
2021/11/07 05:59:54;;;;;;;;;;;;;;;-144.99;100.00;52570.38;4992093;28;20005;-67
2021/11/07 06:02:22;;;;;;;;;;;;;;;-144.99;100.00;52550.00;4992038;28;20005;-66
2021/11/07 06:04:49;;;;;;;;;;;;;;;-144.99;100.00;52533.69;4991765;28;19986;-66
2021/11/07 06:07:15;;;;;;;;;;;;;;;-144.99;100.00;52586.69;4992254;28;19982;-66
2021/11/07 06:09:41;;;;;;;;;;;;;;;-144.99;100.00;52521.47;4992239;28;19982;-67
2021/11/07 06:12:09;;;;;;;;;;;;;;;-144.99;100.00;52541.84;4991736;28;20008;-67
2021/11/07 06:14:36;;;;;;;;;;;;;;;-144.99;100.00;52509.25;4992262;28;20344;-67
2021/11/07 06:17:02;;;;;;;;;;;;;;;-144.99;100.00;52590.78;4995411;28;20072;-67
2021/11/07 06:19:30;;;;;;;;;;;;;;;-144.99;100.00;52499.06;4992210;28;19986;-66
2021/11/07 06:21:57;;;;;;;;;;;;;;;-144.99;100.00;52517.41;4991846;28;20248;-66
2021/11/07 06:24:26;;;;;;;;;;;;;;;-144.99;100.00;52558.16;4991657;28;19993;-66
2021/11/07 06:26:55;;;;;;;;;;;;;;;-144.99;100.00;52566.31;4991392;28;20423;-66
2021/11/07 06:29:22;;;;;;;;;;;;;;;-144.99;100.00;52566.31;4991752;28;20009;-65
2021/11/07 06:31:51;;;;;;;;;;;;;;;-144.99;100.00;52521.47;4992053;28;19986;-66
2021/11/07 06:34:18;;;;;;;;;;;;;;;-144.99;100.00;52576.50;4992143;28;20033;-65
2021/11/07 06:36:46;;;;;;;;;;;;;;;-144.99;100.00;52525.56;4998245;28;20025;-65
2021/11/07 06:39:12;;;;;;;;;;;;;;;-144.99;100.00;52537.78;4991956;28;20047;-65
2021/11/07 06:41:39;;;;;;;;;;;;;;;-144.99;100.00;52537.78;4991570;28;19986;-65
2021/11/07 06:44:05;;;;;;;;;;;;;;;-144.99;100.00;52537.78;5001903;28;19990;-65
2021/11/07 06:46:35;;;;;;;;;;;;;;;-144.99;100.00;52525.56;5003092;28;19994;-66
2021/11/07 06:49:01;;;;;;;;;;;;;;;-144.99;100.00;52552.03;4992074;28;19982;-66
2021/11/07 06:51:28;;;;;;;;;;;;;;;-144.99;100.00;52545.94;4998166;28;19978;-64
2021/11/07 06:53:55;;;;;;;;;;;;;;;-144.99;100.00;52594.84;4998504;28;19980;-66
2021/11/07 06:56:22;;;;;;;;;;;;;;;-144.99;100.00;52566.31;4991039;28;20033;-66
2021/11/07 06:58:48;;;;;;;;;;;;;;;-144.99;100.00;52598.94;4991481;28;20008;-66
2021/11/07 07:01:15;;;;;;;;;;;;;;;-144.99;100.00;52537.78;4991575;28;19982;-67
2021/11/07 07:03:41;;;;;;;;;;;;;;;-144.99;100.00;52543.91;4991019;28;19998;-67
2021/11/07 07:06:08;;;;;;;;;;;;;;;-144.99;100.00;52550.00;4990448;28;20057;-68
2021/11/07 07:08:42;;;;;;;;;;;;;;;-144.99;100.00;52590.78;4990730;28;20357;-67
2021/11/07 07:11:13;;;;;;;;;;;;;;;-144.99;100.00;52562.25;4990995;28;19989;-67
2021/11/07 07:13:45;;;;;;;;;;;;;;;-144.99;100.00;52550.00;4981442;28;20088;-67
2021/11/07 07:16:21;;;;;;;;;;;;;;;-144.99;100.00;52558.16;5004252;28;20061;-68
2021/11/07 07:18:57;;;;;;;;;;;;;;;-144.99;100.00;52509.25;4990686;28;20032;-67
2021/11/07 07:21:39;;;;;;;;;;;;;;;-144.99;100.00;52568.34;4990724;28;20650;-67
2021/11/07 07:27:04;;;;;;;;;;;;;;;-144.99;100.00;52554.09;4989915;28;19998;-66
2021/11/07 07:29:51;;;;;;;;;;;;;;;-144.99;100.00;52554.09;4990613;28;19982;-67
2021/11/07 07:35:16;;;;;;;;;;;;;;;-144.99;100.00;52554.09;4935422;29;20018;-67
2021/11/07 07:37:43;;;;;;;;;;;;;;;-144.99;100.00;52582.63;4931395;29;19995;-67
2021/11/07 07:40:10;;;;;;;;;;;;;;;-144.99;100.00;52574.47;4956135;28;20469;-67
2021/11/07 07:42:38;;;;;;;;;;;;;;;-144.99;100.00;52564.28;4989866;28;20459;-68
2021/11/07 07:45:06;;;;;;;;;;;;;;;-144.99;100.00;52586.69;4982399;28;19974;-67
2021/11/07 07:47:33;;;;;;;;;;;;;;;-144.99;100.00;52547.97;5000798;28;19978;-67
2021/11/07 07:50:00;;;;;;;;;;;;;;;-144.99;100.00;52558.16;4990213;28;19982;-67
2021/11/07 07:52:27;;;;;;;;;;;;;;;-144.99;100.00;52543.91;4998021;28;20002;-66
2021/11/07 07:54:54;;;;;;;;;;;;;;;-144.99;100.00;52533.69;4997094;28;20069;-67
2021/11/07 07:57:21;;;;;;;;;;;;;;;-144.99;100.00;52509.25;4991178;28;19982;-67
2021/11/07 07:59:49;;;;;;;;;;;;;;;-144.99;100.00;52529.63;4992070;28;20005;-67
2021/11/07 08:02:16;;;;;;;;;;;;;;;-144.99;100.00;52537.78;4997247;28;19999;-66
2021/11/07 08:04:42;;;;;;;;;;;;;;;-144.99;100.00;52525.56;4997589;28;20249;-68
2021/11/07 08:07:09;;;;;;;;;;;;;;;-144.99;100.00;52554.09;4994936;28;20013;-67
2021/11/07 08:09:35;;;;;;;;;;;;;;;-144.99;100.00;52543.91;4991444;28;19990;-66
2021/11/07 08:12:01;;;;;;;;;;;;;;;-144.99;100.00;52541.84;4991900;28;19989;-66
2021/11/07 08:14:28;;;;;;;;;;;;;;;-144.99;100.00;52556.13;4994877;28;19989;-66
2021/11/07 08:16:56;;;;;;;;;;;;;;;-144.99;100.00;52529.63;4993453;28;19997;-66
2021/11/07 08:19:22;;;;;;;;;;;;;;;-144.99;100.00;52541.84;4990627;28;20066;-66
2021/11/07 08:21:48;;;;;;;;;;;;;;;-144.99;100.00;52505.16;4989835;28;19978;-66
2021/11/07 08:24:16;;;;;;;;;;;;;;;-144.99;99.46;52541.84;4989943;28;19962;-68
2021/11/07 08:26:43;;;;;;;;;;;;;;;-144.99;97.78;52509.25;4989350;28;20163;-67
2021/11/07 08:29:11;;;;;;;;;;;;;;;-144.99;97.13;52488.84;4990082;28;20089;-68
2021/11/07 08:31:38;;;;;;;;;;;;;;;-144.99;95.54;52507.19;4989947;28;19989;-67
2021/11/07 08:34:07;;;;;;;;;;;;;;;-144.99;89.92;52525.56;4989564;28;19998;-66
2021/11/07 08:36:39;;;;;;;;;;;;;;;-144.99;89.36;52552.03;4997137;28;19982;-66
2021/11/07 08:39:09;;;;;;;;;;;;;;;-144.99;90.99;52570.38;4993826;28;20085;-68
2021/11/07 08:41:43;;;;;;;;;;;;;;;-144.99;93.70;52521.47;4993779;28;19982;-66
2021/11/07 09:00:41;;;;;;;;;;;;;;;-144.99;100.00;52574.47;4993463;28;19989;-66
2021/11/07 09:03:17;;;;;;;;;;;;;;;-144.99;100.00;52543.91;4993228;28;20005;-67
2021/11/07 09:08:29;;;;;;;;;;;;;;;-144.99;100.00;52572.44;4993388;28;20370;-66
2021/11/07 09:10:58;;;;;;;;;;;;;;;-144.99;100.00;52592.81;4993570;28;20072;-67
2021/11/07 09:13:24;;;;;;;;;;;;;;;-144.99;100.00;52568.34;4991441;28;20096;-67
2021/11/07 09:15:51;;;;;;;;;;;;;;;-144.99;100.00;52562.25;5008132;28;19985;-67
2021/11/07 09:18:18;;;;;;;;;;;;;;;-144.99;100.00;52554.09;4993341;28;19988;-68
2021/11/07 09:20:51;;;;;;;;;;;;;;;-144.99;100.00;52552.03;4992898;28;20444;-67
2021/11/07 09:23:21;;;;;;;;;;;;;;;-144.99;100.00;52550.00;4992941;28;19990;-67
2021/11/07 09:25:50;;;;;;;;;;;;;;;-144.99;100.00;52550.00;4993745;28;19993;-68
2021/11/07 09:28:21;;;;;;;;;;;;;;;-144.99;100.00;52494.97;4992991;28;20013;-68
2021/11/07 09:30:56;;;;;;;;;;;;;;;-144.99;100.00;52582.63;4993633;28;19982;-68
2021/11/07 09:33:28;;;;;;;;;;;;;;;-144.99;100.00;52529.63;4992396;28;19997;-67
2021/11/07 09:38:46;;;;;;;;;;;;;;;-144.99;94.48;52497.00;4989481;28;19982;-67
2021/11/07 09:41:17;;;;;;;;;;;;;;;-144.99;93.02;52480.72;4992397;28;20113;-69
2021/11/07 09:43:47;;;;;;;;;;;;;;;-144.99;91.52;52480.72;4998817;28;20047;-68
2021/11/07 09:46:28;;;;;;;;;;;;;;;-144.99;85.56;52472.56;5004116;28;19998;-68
2021/11/07 09:48:57;;;;;;;;;;;;;;;-144.99;83.22;52423.63;4993964;28;20569;-68
2021/11/07 09:51:32;;;;;;;;;;;;;;;-144.99;79.95;52427.72;4998803;28;20014;-68
2021/11/07 09:53:58;;;;;;;;;;;;;;;-144.99;78.42;52439.94;4999886;28;20028;-67
2021/11/07 09:56:25;;;;;;;;;;;;;;;-144.99;75.21;52468.47;4992409;28;19986;-67
2021/11/07 09:58:54;;;;;;;;;;;;;;;-144.99;71.90;52415.47;4992700;28;20037;-70
2021/11/07 10:01:20;;;;;;;;;;;;;;;-144.99;70.60;52415.47;4992542;28;20077;-67
2021/11/07 10:03:47;;;;;;;;;;;;;;;-144.99;70.78;52505.16;4992122;28;19998;-68
2021/11/07 10:06:27;;;;;;;;;;;;;;;-144.99;74.96;52503.13;4992078;28;20002;-67
2021/11/07 10:08:54;;;;;;;;;;;;;;;-144.99;81.57;52539.81;4992672;28;19982;-68
2021/11/07 10:11:25;;;;;;;;;;;;;;;-144.99;91.40;52570.38;4992389;28;20048;-67
2021/11/07 10:13:59;;;;;;;;;;;;;;;-144.99;97.47;52533.69;4991505;28;20045;-68
2021/11/07 10:16:34;;;;;;;;;;;;;;;-144.99;93.82;52537.78;5000350;28;20474;-68
2021/11/07 10:19:13;;;;;;;;;;;;;;;-144.99;95.41;52543.91;4992552;28;19986;-67
2021/11/07 10:21:47;;;;;;;;;;;;;;;-144.99;96.29;52550.00;4991934;28;19978;-64
2021/11/07 10:24:16;;;;;;;;;;;;;;;-144.99;96.94;52501.09;4991852;28;20447;-67
2021/11/07 10:26:45;;;;;;;;;;;;;;;-144.99;95.01;52484.78;5009388;22;19998;-68
2021/11/07 10:29:21;;;;;;;;;;;;;;;-144.99;94.08;52444.03;4992741;28;19981;-67
2021/11/07 10:31:53;;;;;;;;;;;;;;;-144.99;93.94;52562.25;5005287;28;19981;-68
2021/11/07 10:40:04;;;;;;;;;;;;;;;-144.99;99.13;52570.38;4972428;28;19990;-68
2021/11/07 10:42:50;;;;;;;;;;;;;;;-144.99;100.00;52554.09;4973411;28;19998;-68
2021/11/07 10:45:22;;;;;;;;;;;;;;;-144.99;99.85;52578.53;4972373;28;19982;-67
2021/11/07 10:48:16;;;;;;;;;;;;;;;-144.99;100.00;52550.00;4982328;28;20447;-67
2021/11/07 10:53:28;;;;;;;;;;;;;;;-144.99;100.00;52456.25;4980753;28;20001;-67
2021/11/07 10:55:56;;;;;;;;;;;;;;;-144.99;92.07;52338.03;4974044;28;19982;-66
2021/11/07 10:58:27;;;;;;;;;;;;;;;-144.99;81.72;52364.53;4972975;28;19986;-67
2021/11/07 11:00:54;;;;;;;;;;;;;;;-144.99;79.01;52309.50;4972245;28;20025;-66
2021/11/07 11:03:21;;;;;;;;;;;;;;;-144.99;75.13;52521.47;4986235;28;20001;-68
2021/11/07 11:05:50;;;;;;;;;;;;;;;-144.99;79.31;52513.31;4973642;28;19989;-68
2021/11/07 11:08:18;;;;;;;;;;;;;;;-144.99;84.84;52541.84;4972726;28;20340;-67
2021/11/07 11:10:56;;;;;;;;;;;;;;;-144.99;85.38;52545.94;4974032;28;20077;-67
2021/11/07 11:13:38;;;;;;;;;;;;;;;-144.99;87.15;52537.78;4976125;28;20403;-67
2021/11/07 11:16:22;;;;;;;;;;;;;;;-144.99;86.19;52517.41;4981695;28;20550;-68
2021/11/07 11:19:16;;;;;;;;;;;;;;;-144.99;86.67;52584.66;4973371;28;19979;-67
2021/11/07 11:27:23;;;;;;;;;;;;;;;-144.99;88.47;52586.69;4972576;28;20025;-67
2021/11/07 11:30:03;;;;;;;;;;;;;;;-144.99;91.52;52556.13;4972528;28;19999;-67
2021/11/07 11:32:36;;;;;;;;;;;;;;;-144.99;94.18;52564.28;4972714;28;20014;-68
2021/11/07 11:35:05;;;;;;;;;;;;;;;-144.99;94.38;52550.00;4982442;28;19994;-68
2021/11/07 11:37:39;;;;;;;;;;;;;;;-144.99;94.11;52562.25;4974898;28;19982;-68
2021/11/07 11:40:09;;;;;;;;;;;;;;;-144.99;93.32;52521.47;4972548;28;19977;-68
2021/11/07 11:42:42;;;;;;;;;;;;;;;-144.99;87.96;52354.34;4971918;28;20380;-67
2021/11/07 11:45:09;;;;;;;;;;;;;;;-144.99;77.00;52346.19;4973673;28;20014;-67
2021/11/07 11:47:49;;;;;;;;;;;;;;;-144.99;71.81;52321.72;4981543;28;20001;-68
2021/11/07 11:50:30;;;;;;;;;;;;;;;-144.99;69.78;52492.94;4974026;28;20381;-69
2021/11/07 11:53:07;;;;;;;;;;;;;;;-144.99;75.26;52494.97;4982619;28;20025;-68
2021/11/07 11:55:41;;;;;;;;;;;;;;;-144.99;80.45;52550.00;4974686;28;20440;-68
2021/11/07 11:58:25;;;;;;;;;;;;;;;-144.99;81.34;52492.94;4984256;28;19989;-68
2021/11/07 12:00:57;;;;;;;;;;;;;;;-144.99;81.44;52399.19;4983997;28;20005;-68
2021/11/07 12:03:37;;;;;;;;;;;;;;;-144.99;76.17;52366.56;4984936;28;19999;-68
2021/11/07 12:06:20;;;;;;;;;;;;;;;-144.99;70.12;52358.41;4971585;28;19983;-68
2021/11/07 12:08:57;;;;;;;;;;;;;;;-144.99;68.08;52323.75;4959671;28;19983;-68
2021/11/07 12:11:28;;;;;;;;;;;;;;;-144.99;65.37;52289.13;4971127;28;19982;-68
2021/11/07 12:14:04;;;;;;;;;;;;;;;-144.99;63.43;52287.06;4965949;28;20077;-68
2021/11/07 12:16:45;;;;;;;;;;;;;;;-144.99;61.32;52301.34;4978005;28;20074;-68
2021/11/07 12:19:13;;;;;;;;;;;;;;;-144.99;62.42;52289.13;4972021;28;20110;-68
2021/11/07 12:22:00;;;;;;;;;;;;;;;-144.99;62.11;52480.72;4970322;28;20279;-68
2021/11/07 12:24:28;;;;;;;;;;;;;;;-144.99;66.57;52521.47;4971995;28;19986;-68
2021/11/07 12:27:16;;;;;;;;;;;;;;;-144.99;71.03;52550.00;4970976;28;19998;-69
2021/11/07 12:29:45;;;;;;;;;;;;;;;-144.99;77.51;52547.97;4971823;28;20026;-69
2021/11/07 12:32:12;;;;;;;;;;;;;;;-144.99;83.33;52513.31;4972143;28;19999;-69
2021/11/07 12:34:56;;;;;;;;;;;;;;;-144.99;88.57;52570.38;4985754;28;20073;-69
2021/11/07 12:40:37;;;;;;;;;;;;;;;-144.99;99.27;52566.31;4972517;28;19966;-69
2021/11/07 12:43:04;;;;;;;;;;;;;;;-144.99;100.00;52558.16;4969860;28;20498;-69
2021/11/07 12:45:36;;;;;;;;;;;;;;;-144.99;100.00;52570.38;4979831;28;20041;-68
2021/11/07 12:48:05;;;;;;;;;;;;;;;-144.99;100.00;52570.38;4961970;28;20007;-68
2021/11/07 12:50:47;;;;;;;;;;;;;;;-144.99;100.00;52550.00;4972294;28;20021;-68
2021/11/07 12:53:13;;;;;;;;;;;;;;;-144.99;100.00;52419.56;4970569;28;19998;-66
2021/11/07 12:55:39;;;;;;;;;;;;;;;-144.99;93.01;52444.03;4972451;28;20081;-67
2021/11/07 12:58:06;;;;;;;;;;;;;;;-144.99;83.34;52325.81;4971586;28;19997;-66
2021/11/07 13:00:34;;;;;;;;;;;;;;;-144.99;76.05;52439.94;4989974;28;20583;-68
2021/11/07 13:03:05;;;;;;;;;;;;;;;-144.99;76.66;52476.63;4987049;28;19999;-68
2021/11/07 13:05:36;;;;;;;;;;;;;;;-144.99;82.55;52509.25;4990956;28;20502;-67
2021/11/07 13:08:05;;;;;;;;;;;;;;;-144.99;87.08;52537.78;4991992;28;20404;-68
2021/11/07 13:10:40;;;;;;;;;;;;;;;-144.99;88.39;52521.47;4986928;28;19963;-67
2021/11/07 13:13:10;;;;;;;;;;;;;;;-144.99;92.19;52562.25;4985311;28;19990;-67
2021/11/07 13:15:45;;;;;;;;;;;;;;;-144.99;93.69;52550.00;4985292;28;19978;-67
2021/11/07 13:21:30;;;;;;;;;;;;;;;-144.99;92.73;52578.53;4911038;29;20535;-68
2021/11/07 13:24:19;;;;;;;;;;;;;;;-144.99;93.76;52598.94;4912785;29;19999;-68